Flight Track Log - Related Links

Times and Time Zones

All times are in EST time to prevent confusion due to time zone crossing. See the CHQ5270 flight status page for this flight to view local times or setup timezone preferences in your user account.

Time Position Orientation Groundspeed Altitude Reporting Facility
EST Latitude Longitude Course Direction KTS MPH feet Rate Location/Type
09:49PM 41.9667 -87.9333 270° West 165 190 2,000  Level Chicago TRACON
09:50PM 41.9500 -88.0000 251° West 212 244 4,300 2,380 Climbing Chicago TRACON
09:51PM 41.8851 -88.3062 257° West  Level FlightAware Approximate
09:51PM 41.9333 -88.0833 255° West 258 297 6,800  Level Chicago TRACON
09:51PM 41.9275 -88.1558 264° West 254 292 9,300 2,885 Climbing Chicago Center
09:52PM 41.8603 -88.4445 253° West  Level FlightAware Approximate
09:52PM 41.9189 -88.2517 263° West 260 299 11,800  Level Chicago Center
09:53PM 41.8289 -88.5805 253° West  Level FlightAware Approximate
09:53PM 41.9058 -88.3472 260° West 259 298 14,000  Level Chicago Center
09:54PM 41.8000 -88.7173 270° West  Level FlightAware Approximate
09:54PM 41.8797 -88.4558 252° West 291 335 14,000  Level Chicago Center
09:55PM 41.8522 -88.5736 253° West 330 380 14,100 49 Climbing Chicago Center
09:56PM 41.8244 -88.6919 253° West 334 384 14,100  Level Chicago Center
09:57PM 41.7928 -88.8197 252° West 336 387 14,100  Level Chicago Center
09:58PM 41.7631 -88.9261 249° West 348 400 14,100  Level Chicago Center
09:59PM 41.6733 -88.9936 209° Southwest 370 426 14,100  Level Chicago Center
10:00PM 41.5842 -89.0567 208° Southwest 366 421 14,100  Level Chicago Center
10:01PM 41.4936 -89.1203 208° Southwest 369 425 14,100  Level Chicago Center
10:03PM 41.4031 -89.1833 208° Southwest 369 425 14,100 -197 Level Chicago Center
10:04PM 41.3103 -89.2494 208° Southwest 379 436 13,700 -1,328 Descending Chicago Center
10:05PM 41.1992 -89.3111 203° Southwest 366 421 11,400 -1,756 Descending Chicago Center
10:06PM 41.1153 -89.3492 199° South 340 391 10,100 -1,268 Descending Chicago Center
10:07PM 41.0414 -89.3792 197° South 294 338 8,800 -1,377 Descending Chicago Center
10:08PM 40.9650 -89.4147 199° South 287 330 7,300 -1,463 Descending Chicago Center
10:09PM 40.8917 -89.4525 201° Southwest 285 328 5,800 -1,463 Descending Chicago Center
10:10PM 40.8222 -89.4925 204° Southwest 275 316 4,300 -1,268 Descending Chicago Center
10:11PM 40.7569 -89.5336 206° Southwest 264 304 3,200 -878 Descending Chicago Center
10:12PM 40.6989 -89.5683 204° Southwest 246 283 2,500 -738 Descending Chicago Center
10:13PM 40.6572 -89.5967 207° Southwest 195 224 1,700 -443 Descending Chicago Center
10:14PM 40.6325 -89.6400 233° Southwest 169 194 1,600 -390 Descending Chicago Center
10:15PM 40.6528 -89.6764 306° West 144 166 900 -439 Descending Chicago Center
10:16PM 40.6722 -89.7114 306° West 140 161 700 -197 Descending Chicago Center

Login

Don't have an account? Register now (free) for customized features, flight alerts, and more!